Time;durP1;ratioP1;P1;durP2;ratioP2;P2;SDS_P1;SDS_P2;PMS_P1;PMS_P2;Temp;Humidity;BMP_temperature;BMP_pressure;BME280_temperature;BME280_humidity;BME280_pressure;Samples;Min_cycle;Max_cycle;Signal;HPM_P1;HPM_P2
2023/04/22 00:01:47;;;;;;;11.23;7.37;;;9.60;99.90;;;;;;5046219;28;20055;-75
2023/04/22 00:04:13;;;;;;;8.60;6.23;;;9.60;99.90;;;;;;5052052;28;20041;-75
2023/04/22 00:06:39;;;;;;;8.23;6.30;;;9.60;99.90;;;;;;5037527;28;20489;-75
2023/04/22 00:09:05;;;;;;;9.57;7.15;;;9.50;99.90;;;;;;5031846;28;20279;-75
2023/04/22 00:11:31;;;;;;;8.17;5.83;;;9.40;99.90;;;;;;5052621;28;20037;-75
2023/04/22 00:13:56;;;;;;;9.83;6.63;;;9.40;99.90;;;;;;5055717;28;20060;-75
2023/04/22 00:16:22;;;;;;;10.97;6.80;;;9.30;99.90;;;;;;5042022;28;20047;-75
2023/04/22 00:18:48;;;;;;;8.83;6.97;;;9.30;99.90;;;;;;5037050;28;20061;-75
2023/04/22 00:21:14;;;;;;;7.80;6.03;;;9.20;99.90;;;;;;5053016;28;20029;-75
2023/04/22 00:23:40;;;;;;;8.70;6.90;;;9.20;99.90;;;;;;5032053;28;20043;-75
2023/04/22 00:26:06;;;;;;;11.00;6.80;;;9.10;99.90;;;;;;5047412;28;20485;-76
2023/04/22 00:28:32;;;;;;;10.13;6.70;;;9.00;99.90;;;;;;5048045;28;20040;-76
2023/04/22 00:30:57;;;;;;;9.57;7.05;;;8.90;99.90;;;;;;5061000;28;20045;-76
2023/04/22 00:33:24;;;;;;;8.33;6.20;;;8.80;99.90;;;;;;5032873;28;20041;-76
2023/04/22 00:35:49;;;;;;;11.85;6.47;;;8.70;99.90;;;;;;5046181;28;20497;-76
2023/04/22 00:38:15;;;;;;;8.63;6.37;;;8.60;99.90;;;;;;5034630;28;20043;-77
2023/04/22 00:40:41;;;;;;;9.57;6.23;;;8.50;99.90;;;;;;5044650;28;20056;-76
2023/04/22 00:43:08;;;;;;;8.07;6.37;;;8.40;99.90;;;;;;5040835;28;20041;-76
2023/04/22 00:45:36;;;;;;;8.10;6.20;;;8.40;99.90;;;;;;5046634;28;20067;-75
2023/04/22 00:48:01;;;;;;;9.63;7.00;;;8.30;99.90;;;;;;5029711;28;20048;-75
2023/04/22 00:50:27;;;;;;;10.77;7.27;;;8.20;99.90;;;;;;5039719;28;20028;-75
2023/04/22 00:52:53;;;;;;;10.60;7.67;;;8.10;99.90;;;;;;5043037;28;20036;-75
2023/04/22 00:55:19;;;;;;;13.33;8.07;;;8.10;99.90;;;;;;5039903;28;20051;-75
2023/04/22 00:57:45;;;;;;;12.07;7.90;;;8.10;99.90;;;;;;5050154;28;20041;-75
2023/04/22 01:00:12;;;;;;;9.52;7.47;;;8.10;99.90;;;;;;5047869;28;20046;-75
2023/04/22 01:02:38;;;;;;;11.20;8.75;;;8.00;99.90;;;;;;5045725;28;20041;-75
2023/04/22 01:05:05;;;;;;;11.47;8.20;;;8.00;99.90;;;;;;5061357;28;20041;-75
2023/04/22 01:07:30;;;;;;;11.23;8.43;;;8.00;99.90;;;;;;5038266;28;20052;-75
2023/04/22 01:09:57;;;;;;;12.07;8.43;;;8.00;99.90;;;;;;5030157;28;20461;-77
2023/04/22 01:12:22;;;;;;;11.55;9.50;;;8.00;99.90;;;;;;5061943;28;20032;-77
2023/04/22 01:14:48;;;;;;;14.20;10.63;;;8.00;99.90;;;;;;5059064;28;20060;-76
2023/04/22 01:17:15;;;;;;;13.17;10.17;;;8.00;99.90;;;;;;5046115;28;20149;-76
2023/04/22 01:19:42;;;;;;;12.77;9.93;;;7.90;99.90;;;;;;5030451;28;20545;-77
2023/04/22 01:22:08;;;;;;;15.23;10.98;;;7.90;99.90;;;;;;5047969;28;20041;-76
2023/04/22 01:24:34;;;;;;;14.75;10.85;;;7.80;99.90;;;;;;5055954;28;20245;-76
2023/04/22 01:27:00;;;;;;;16.00;11.53;;;7.80;99.90;;;;;;5041839;28;20036;-76
2023/04/22 01:29:26;;;;;;;14.68;11.20;;;7.80;99.90;;;;;;5057325;28;20095;-76
2023/04/22 01:31:52;;;;;;;15.03;10.93;;;7.80;99.90;;;;;;5037748;28;20091;-76
2023/04/22 01:34:18;;;;;;;13.57;10.65;;;7.70;99.90;;;;;;5028974;28;20049;-76
2023/04/22 01:36:44;;;;;;;13.13;9.67;;;7.70;99.90;;;;;;5057729;28;20347;-76
2023/04/22 01:39:09;;;;;;;12.70;9.83;;;7.60;99.90;;;;;;5057216;28;20397;-76
2023/04/22 01:41:35;;;;;;;13.43;9.70;;;7.60;99.90;;;;;;5053882;28;20041;-76
2023/04/22 01:44:03;;;;;;;12.77;10.03;;;7.50;99.90;;;;;;5034260;28;20045;-76
2023/04/22 01:46:29;;;;;;;16.17;10.60;;;7.50;99.90;;;;;;5038564;28;20036;-76
2023/04/22 01:48:55;;;;;;;14.47;10.83;;;7.40;99.90;;;;;;5035425;28;20037;-76
2023/04/22 01:51:20;;;;;;;15.53;11.10;;;7.40;99.90;;;;;;5047475;28;20111;-76
2023/04/22 01:53:47;;;;;;;12.93;10.43;;;7.30;99.90;;;;;;5048807;28;20425;-76
2023/04/22 01:56:13;;;;;;;16.98;10.65;;;7.30;99.90;;;;;;5032569;28;20504;-76
2023/04/22 01:58:39;;;;;;;14.47;10.33;;;7.20;99.90;;;;;;5025088;28;20346;-76
2023/04/22 02:01:07;;;;;;;14.95;10.70;;;7.20;99.90;;;;;;5036035;28;20129;-76
2023/04/22 02:03:32;;;;;;;16.48;11.25;;;7.20;99.90;;;;;;5048622;28;20139;-76
2023/04/22 02:05:58;;;;;;;13.40;10.23;;;7.20;99.90;;;;;;5043132;28;20513;-75
2023/04/22 02:08:24;;;;;;;14.80;10.77;;;7.10;99.90;;;;;;5027568;28;20043;-75
2023/04/22 02:10:49;;;;;;;15.37;10.40;;;7.10;99.90;;;;;;5044514;28;20118;-75
2023/04/22 02:13:15;;;;;;;14.33;10.47;;;7.10;99.90;;;;;;5033769;28;20500;-75
2023/04/22 02:15:41;;;;;;;15.17;10.50;;;7.10;99.90;;;;;;5034414;28;20037;-75
2023/04/22 02:18:07;;;;;;;14.73;10.90;;;7.10;99.90;;;;;;5033668;28;20041;-75
2023/04/22 02:20:32;;;;;;;14.40;11.05;;;7.10;99.90;;;;;;5050711;28;20360;-75
2023/04/22 02:22:59;;;;;;;15.73;10.87;;;7.10;99.90;;;;;;5030625;28;20055;-76
2023/04/22 02:25:25;;;;;;;18.27;11.13;;;7.00;99.90;;;;;;5017332;28;20041;-76
2023/04/22 02:27:51;;;;;;;15.30;11.40;;;7.00;99.90;;;;;;5045984;28;20052;-76
2023/04/22 02:30:17;;;;;;;13.87;10.60;;;7.00;99.90;;;;;;5016762;28;20061;-76
2023/04/22 02:32:43;;;;;;;17.27;11.90;;;7.00;99.90;;;;;;5035931;28;20037;-76
2023/04/22 02:35:10;;;;;;;15.50;10.90;;;6.90;99.90;;;;;;5019643;28;20053;-76
2023/04/22 02:37:36;;;;;;;18.25;12.18;;;7.00;99.90;;;;;;5051953;28;20057;-76
2023/04/22 02:40:03;;;;;;;18.23;11.75;;;6.90;99.90;;;;;;5030290;28;20134;-76
2023/04/22 02:42:29;;;;;;;12.95;9.88;;;6.90;99.90;;;;;;5051651;28;20044;-76
2023/04/22 02:44:54;;;;;;;13.23;10.50;;;6.80;99.90;;;;;;5029562;28;20041;-75
2023/04/22 02:47:21;;;;;;;16.43;11.37;;;6.80;99.90;;;;;;5052094;28;20067;-75
2023/04/22 02:49:47;;;;;;;15.00;10.70;;;6.80;99.90;;;;;;5036611;28;20040;-75
2023/04/22 02:52:12;;;;;;;14.67;10.80;;;6.70;99.90;;;;;;5034909;28;20040;-75
2023/04/22 02:54:38;;;;;;;14.57;10.70;;;6.70;99.90;;;;;;5035737;28;20043;-75
2023/04/22 02:57:04;;;;;;;14.63;10.40;;;6.70;99.90;;;;;;5050596;28;20036;-75
2023/04/22 02:59:30;;;;;;;16.30;10.97;;;6.70;99.90;;;;;;5023998;28;20474;-75
2023/04/22 03:01:56;;;;;;;14.00;9.95;;;6.60;99.90;;;;;;5038731;28;20044;-75
2023/04/22 03:04:24;;;;;;;14.07;10.73;;;6.60;99.90;;;;;;5046124;28;20067;-75
2023/04/22 03:06:50;;;;;;;14.85;10.50;;;6.60;99.90;;;;;;5041705;28;20041;-75
2023/04/22 03:09:16;;;;;;;17.97;10.77;;;6.60;99.90;;;;;;5057285;28;20048;-75
2023/04/22 03:11:42;;;;;;;14.25;10.45;;;6.60;99.90;;;;;;5035441;28;20043;-75
2023/04/22 03:14:08;;;;;;;15.47;10.50;;;6.50;99.90;;;;;;5023842;28;20330;-75
2023/04/22 03:16:33;;;;;;;16.87;11.20;;;6.50;99.90;;;;;;5035653;28;20362;-75
2023/04/22 03:18:59;;;;;;;15.20;10.77;;;6.50;99.90;;;;;;5036945;28;20041;-75
2023/04/22 03:21:25;;;;;;;20.23;11.50;;;6.40;99.90;;;;;;5031018;28;20047;-75
2023/04/22 03:23:51;;;;;;;16.07;10.93;;;6.40;99.90;;;;;;5039885;28;20037;-75
2023/04/22 03:26:16;;;;;;;14.23;10.10;;;6.40;99.90;;;;;;5046826;28;20029;-75
2023/04/22 03:28:42;;;;;;;18.63;11.40;;;6.30;99.90;;;;;;5041069;28;20079;-75
2023/04/22 03:31:08;;;;;;;20.53;10.97;;;6.30;99.90;;;;;;5025932;28;20056;-75
2023/04/22 03:33:33;;;;;;;37.63;10.23;;;6.30;99.90;;;;;;5045336;28;20044;-75
2023/04/22 03:35:59;;;;;;;16.60;9.33;;;6.30;99.90;;;;;;5049203;28;20120;-75
2023/04/22 03:38:26;;;;;;;43.00;9.50;;;6.20;99.90;;;;;;5037921;28;20037;-75
2023/04/22 03:40:51;;;;;;;47.53;9.30;;;6.20;99.90;;;;;;5034080;28;20041;-75
2023/04/22 03:43:17;;;;;;;54.63;9.77;;;6.20;99.90;;;;;;5037420;28;20055;-75
2023/04/22 03:45:43;;;;;;;65.23;11.10;;;6.10;99.90;;;;;;5037329;28;20041;-75
2023/04/22 03:48:09;;;;;;;169.48;17.63;;;6.00;99.90;;;;;;5030369;28;20072;-75
2023/04/22 03:50:35;;;;;;;69.30;9.23;;;6.00;99.90;;;;;;5034967;28;20040;-75
2023/04/22 03:53:00;;;;;;;33.03;6.70;;;5.80;99.90;;;;;;5046408;28;20071;-75
2023/04/22 03:55:26;;;;;;;23.27;6.50;;;5.70;99.90;;;;;;5063847;28;20076;-75
2023/04/22 03:57:52;;;;;;;53.60;7.57;;;5.60;99.90;;;;;;5046049;28;20040;-75
2023/04/22 04:00:17;;;;;;;40.13;7.10;;;5.60;99.90;;;;;;5044530;28;20064;-75
2023/04/22 04:02:43;;;;;;;37.00;7.43;;;5.50;99.90;;;;;;5049583;28;20041;-75
2023/04/22 04:05:10;;;;;;;19.93;6.63;;;5.50;99.90;;;;;;5040612;28;20041;-75
2023/04/22 04:07:36;;;;;;;29.92;7.18;;;5.50;99.90;;;;;;5046416;28;20096;-75
2023/04/22 04:10:02;;;;;;;32.17;8.10;;;5.50;99.90;;;;;;5060123;28;20064;-75
2023/04/22 04:12:28;;;;;;;73.70;8.85;;;5.50;99.90;;;;;;5044213;28;20037;-75
2023/04/22 04:14:53;;;;;;;41.50;8.93;;;5.50;99.90;;;;;;5059555;28;20104;-75
2023/04/22 04:17:20;;;;;;;26.00;7.47;;;5.50;99.90;;;;;;5048452;28;20049;-75
2023/04/22 04:19:46;;;;;;;30.73;6.78;;;5.50;99.90;;;;;;5051641;28;20061;-75
2023/04/22 04:22:12;;;;;;;148.90;15.87;;;5.50;99.90;;;;;;5027810;28;20041;-75
2023/04/22 04:24:40;;;;;;;36.78;7.22;;;5.50;99.90;;;;;;5027983;28;20038;-75
2023/04/22 04:27:07;;;;;;;78.18;9.75;;;5.50;99.90;;;;;;5058544;28;20033;-75
2023/04/22 04:29:34;;;;;;;77.40;9.18;;;5.50;99.90;;;;;;5049802;28;20115;-75
2023/04/22 04:32:00;;;;;;;165.80;17.17;;;5.50;99.90;;;;;;5044624;28;20057;-75
2023/04/22 04:34:26;;;;;;;103.47;12.20;;;5.40;99.90;;;;;;5062861;28;20051;-75
2023/04/22 04:36:51;;;;;;;38.83;6.40;;;5.40;99.90;;;;;;5063822;28;20103;-75
2023/04/22 04:39:17;;;;;;;46.07;7.50;;;5.30;99.90;;;;;;5059649;28;20071;-75
2023/04/22 04:41:44;;;;;;;53.10;9.70;;;5.30;99.90;;;;;;5063562;28;20052;-75
2023/04/22 04:44:10;;;;;;;49.05;6.00;;;5.30;99.90;;;;;;5045285;28;20040;-75
2023/04/22 04:46:36;;;;;;;123.30;9.70;;;5.30;99.90;;;;;;5064289;28;20048;-75
2023/04/22 04:49:05;;;;;;;94.07;9.75;;;5.20;99.90;;;;;;5061249;28;20593;-75
2023/04/22 04:51:31;;;;;;;47.00;5.50;;;5.20;99.90;;;;;;5032161;28;20033;-75
2023/04/22 04:53:57;;;;;;;49.93;6.47;;;5.20;99.90;;;;;;5055164;28;20420;-75
2023/04/22 04:56:23;;;;;;;52.50;6.83;;;5.20;99.90;;;;;;5047264;28;20044;-75
2023/04/22 04:58:49;;;;;;;38.10;6.60;;;5.20;99.90;;;;;;5046567;28;20033;-75
2023/04/22 05:01:14;;;;;;;24.40;4.70;;;5.20;99.90;;;;;;5044493;28;20071;-75
2023/04/22 05:03:40;;;;;;;25.40;6.87;;;5.20;99.90;;;;;;5064281;28;20037;-75
2023/04/22 05:06:06;;;;;;;34.07;7.13;;;5.30;99.90;;;;;;5046841;28;20128;-75
2023/04/22 05:08:32;;;;;;;30.50;6.63;;;5.40;99.90;;;;;;5062944;28;20134;-75
2023/04/22 05:10:58;;;;;;;28.80;7.10;;;5.40;99.90;;;;;;5061350;28;20214;-75
2023/04/22 05:13:25;;;;;;;13.27;6.47;;;5.50;99.90;;;;;;5027844;28;20032;-75
2023/04/22 05:15:50;;;;;;;22.10;7.10;;;5.50;99.90;;;;;;5052287;28;20045;-75
2023/04/22 05:18:16;;;;;;;29.47;8.73;;;5.60;99.90;;;;;;5046991;28;20040;-75
2023/04/22 05:20:42;;;;;;;52.85;8.73;;;5.60;99.90;;;;;;5050254;28;20068;-75
2023/04/22 05:23:08;;;;;;;141.27;22.27;;;5.60;99.90;;;;;;5036985;28;20491;-75
2023/04/22 05:25:34;;;;;;;198.60;21.67;;;5.60;99.90;;;;;;5059934;28;21384;-75
2023/04/22 05:27:59;;;;;;;21.43;6.57;;;5.70;99.90;;;;;;5044088;28;20106;-75
2023/04/22 05:30:25;;;;;;;25.20;6.37;;;5.80;99.90;;;;;;5061749;28;20041;-75
2023/04/22 05:32:51;;;;;;;56.80;11.23;;;5.90;99.90;;;;;;5057775;28;20087;-75
2023/04/22 05:35:16;;;;;;;29.53;7.93;;;5.90;99.90;;;;;;5062508;28;20041;-75
2023/04/22 05:37:42;;;;;;;19.00;6.47;;;5.90;99.90;;;;;;5060237;28;20068;-75
2023/04/22 05:40:08;;;;;;;19.10;8.30;;;5.90;99.90;;;;;;5044183;28;20065;-75
2023/04/22 05:42:34;;;;;;;67.55;13.85;;;6.00;99.90;;;;;;5046597;28;20203;-75
2023/04/22 05:45:00;;;;;;;17.00;7.97;;;6.10;99.90;;;;;;5046502;28;20564;-75
2023/04/22 05:47:26;;;;;;;12.13;6.30;;;6.10;99.90;;;;;;5062407;28;20048;-75
2023/04/22 05:49:52;;;;;;;25.80;7.90;;;6.20;99.90;;;;;;5041771;28;20036;-75
2023/04/22 05:52:18;;;;;;;16.53;7.77;;;6.30;99.90;;;;;;5047469;28;20274;-75
2023/04/22 05:54:43;;;;;;;31.60;8.60;;;6.40;99.90;;;;;;5042419;28;20099;-75
2023/04/22 05:57:09;;;;;;;26.30;9.43;;;6.50;99.90;;;;;;5043324;28;20122;-75
2023/04/22 05:59:35;;;;;;;37.05;11.35;;;6.70;99.90;;;;;;5036319;28;20037;-75
2023/04/22 06:02:01;;;;;;;24.93;8.57;;;6.90;99.90;;;;;;5044399;28;20402;-75
2023/04/22 06:04:26;;;;;;;10.70;8.40;;;7.00;99.90;;;;;;5033928;28;20044;-75
2023/04/22 06:06:52;;;;;;;12.90;8.53;;;7.10;99.90;;;;;;5054779;28;20663;-75
2023/04/22 06:09:20;;;;;;;16.97;10.40;;;7.20;99.90;;;;;;5029069;28;20494;-75
2023/04/22 06:11:45;;;;;;;17.65;10.23;;;7.30;99.90;;;;;;5032590;28;20048;-75
2023/04/22 06:14:12;;;;;;;13.67;10.27;;;7.40;99.90;;;;;;5050132;28;20032;-75
2023/04/22 06:16:38;;;;;;;17.65;11.55;;;7.50;99.90;;;;;;5052580;28;20045;-76
2023/04/22 06:19:05;;;;;;;15.02;10.85;;;7.60;99.90;;;;;;5053867;28;20044;-76
2023/04/22 06:21:32;;;;;;;13.10;9.93;;;7.70;99.90;;;;;;5053264;28;20045;-75
2023/04/22 06:23:59;;;;;;;12.38;9.90;;;7.80;99.90;;;;;;5045528;28;20579;-75
2023/04/22 06:26:25;;;;;;;15.82;10.00;;;7.90;99.90;;;;;;5019275;28;20132;-75
2023/04/22 06:28:51;;;;;;;17.38;11.02;;;7.90;99.90;;;;;;5040649;28;20045;-75
2023/04/22 06:31:17;;;;;;;14.15;9.77;;;7.90;99.90;;;;;;5037813;28;20059;-75
2023/04/22 06:33:43;;;;;;;19.90;10.60;;;7.90;99.90;;;;;;5027503;28;20487;-75
2023/04/22 06:36:09;;;;;;;16.80;10.47;;;7.90;99.90;;;;;;5033514;28;20103;-75
2023/04/22 06:38:35;;;;;;;14.68;10.93;;;7.90;99.90;;;;;;5051096;28;20040;-75
2023/04/22 06:41:01;;;;;;;14.83;12.70;;;8.00;99.90;;;;;;5020801;28;20048;-75
2023/04/22 06:43:26;;;;;;;21.57;13.57;;;8.20;99.90;;;;;;5023878;28;20044;-75
2023/04/22 06:45:52;;;;;;;17.47;13.60;;;8.30;99.90;;;;;;5048056;28;20067;-75
2023/04/22 06:48:18;;;;;;;15.77;13.27;;;8.40;99.90;;;;;;5039832;28;20038;-75
2023/04/22 06:50:43;;;;;;;16.50;13.47;;;8.50;99.90;;;;;;5031168;28;20052;-75
2023/04/22 06:53:09;;;;;;;18.00;14.13;;;8.60;99.90;;;;;;5041586;28;20044;-75
2023/04/22 06:55:35;;;;;;;15.97;13.13;;;8.70;99.90;;;;;;5024906;28;20091;-75
2023/04/22 06:58:01;;;;;;;18.07;14.87;;;8.90;99.90;;;;;;5037478;28;20158;-75
2023/04/22 07:00:27;;;;;;;18.77;14.40;;;9.20;99.90;;;;;;5035873;28;20124;-75
2023/04/22 07:02:53;;;;;;;19.35;14.95;;;9.40;99.90;;;;;;5036982;28;20107;-75
2023/04/22 07:05:19;;;;;;;16.07;14.20;;;9.60;99.90;;;;;;5027655;28;20041;-75
2023/04/22 07:07:46;;;;;;;20.95;15.30;;;9.80;99.90;;;;;;5043230;28;20039;-75
2023/04/22 07:10:15;;;;;;;18.02;14.40;;;10.00;99.90;;;;;;5029479;28;20041;-75
2023/04/22 07:12:40;;;;;;;17.63;14.50;;;10.10;99.90;;;;;;5029627;28;20029;-75
2023/04/22 07:15:07;;;;;;;17.27;14.60;;;10.30;99.90;;;;;;5043878;28;20055;-74
2023/04/22 07:17:32;;;;;;;20.67;15.52;;;10.40;99.90;;;;;;5025782;28;20647;-74
2023/04/22 07:19:58;;;;;;;20.43;15.90;;;10.60;99.90;;;;;;5027405;28;20052;-74
2023/04/22 07:22:24;;;;;;;20.43;16.27;;;10.70;99.90;;;;;;5042064;28;20045;-74
2023/04/22 07:24:50;;;;;;;18.00;15.13;;;10.70;99.90;;;;;;5020181;28;20040;-74
2023/04/22 07:27:16;;;;;;;18.67;15.50;;;10.80;99.90;;;;;;5019713;28;20121;-74
2023/04/22 07:29:42;;;;;;;23.70;17.00;;;10.80;99.90;;;;;;5044540;28;20045;-74
2023/04/22 07:32:07;;;;;;;18.30;16.27;;;10.90;99.90;;;;;;5039591;28;20407;-74
2023/04/22 07:34:33;;;;;;;19.27;16.23;;;11.00;99.90;;;;;;5022196;28;20102;-74
2023/04/22 07:36:59;;;;;;;20.60;16.97;;;11.20;99.90;;;;;;5034376;28;20049;-74
2023/04/22 07:39:25;;;;;;;17.33;14.87;;;11.30;99.90;;;;;;5029007;28;20033;-74
2023/04/22 07:41:52;;;;;;;20.00;15.30;;;11.40;99.90;;;;;;5034455;28;20163;-74
2023/04/22 07:44:20;;;;;;;19.07;15.83;;;11.50;99.90;;;;;;5037746;28;20276;-74
2023/04/22 07:46:46;;;;;;;18.20;15.53;;;11.50;99.90;;;;;;5020004;28;20276;-74
2023/04/22 07:49:12;;;;;;;18.03;14.73;;;11.70;99.90;;;;;;5024744;28;20306;-74
2023/04/22 07:51:39;;;;;;;16.90;14.57;;;11.80;99.90;;;;;;5046149;28;20291;-74
2023/04/22 07:54:05;;;;;;;19.23;14.87;;;11.90;99.90;;;;;;5047871;28;20278;-75
2023/04/22 07:56:31;;;;;;;16.67;14.40;;;12.10;99.90;;;;;;5039226;28;20284;-74
2023/04/22 07:58:56;;;;;;;16.17;14.40;;;12.20;99.90;;;;;;5029974;28;20047;-74
2023/04/22 08:01:22;;;;;;;17.53;14.90;;;12.40;99.90;;;;;;5041586;28;20067;-74
2023/04/22 08:03:48;;;;;;;18.37;15.33;;;12.50;99.90;;;;;;5052466;28;20087;-74
2023/04/22 08:06:14;;;;;;;17.30;15.33;;;12.60;99.90;;;;;;5032373;28;20115;-74
2023/04/22 08:08:39;;;;;;;16.57;14.53;;;12.80;99.90;;;;;;5036189;28;20440;-74
2023/04/22 08:11:06;;;;;;;16.80;14.93;;;12.90;99.90;;;;;;5039070;28;20474;-74
2023/04/22 08:13:31;;;;;;;17.77;15.60;;;13.00;99.90;;;;;;5047372;28;20025;-74
2023/04/22 08:15:58;;;;;;;18.13;15.30;;;13.20;99.90;;;;;;5054916;28;20291;-74
2023/04/22 08:18:24;;;;;;;18.73;16.33;;;13.40;99.90;;;;;;5038319;28;20048;-74
2023/04/22 08:20:50;;;;;;;17.67;15.30;;;13.60;99.90;;;;;;5056458;28;20767;-74
2023/04/22 08:23:16;;;;;;;17.70;15.80;;;13.90;99.90;;;;;;5027035;28;20041;-74
2023/04/22 08:25:41;;;;;;;18.47;16.03;;;14.10;99.90;;;;;;5051079;28;20163;-74
2023/04/22 08:28:07;;;;;;;19.03;15.80;;;14.20;99.90;;;;;;5039268;28;20116;-74
2023/04/22 08:30:33;;;;;;;23.47;16.30;;;14.40;99.90;;;;;;5047814;28;20097;-74
2023/04/22 08:32:58;;;;;;;20.10;16.23;;;14.40;99.90;;;;;;5056713;28;20047;-74
2023/04/22 08:35:24;;;;;;;16.47;14.70;;;14.50;99.90;;;;;;5042182;28;20389;-74
2023/04/22 08:37:50;;;;;;;19.03;15.17;;;14.40;99.90;;;;;;5059688;28;20109;-74
2023/04/22 08:40:16;;;;;;;20.40;16.40;;;14.40;99.90;;;;;;5037727;28;20049;-74
2023/04/22 08:42:43;;;;;;;17.77;15.77;;;14.50;99.90;;;;;;5046326;28;20045;-74
2023/04/22 08:45:09;;;;;;;19.43;16.00;;;14.50;99.90;;;;;;5035530;28;20038;-74
2023/04/22 08:47:37;;;;;;;20.40;16.03;;;14.50;99.90;;;;;;5027223;28;20296;-74
2023/04/22 08:50:05;;;;;;;20.60;16.07;;;14.60;99.90;;;;;;5024093;28;20283;-74
2023/04/22 08:52:31;;;;;;;20.53;17.03;;;14.60;99.90;;;;;;5028423;28;20302;-74
2023/04/22 08:54:58;;;;;;;20.33;17.00;;;14.60;99.90;;;;;;5023374;28;20310;-74
2023/04/22 08:57:25;;;;;;;19.13;16.47;;;14.50;99.90;;;;;;5034234;28;20287;-73
2023/04/22 08:59:51;;;;;;;17.50;15.07;;;14.50;99.90;;;;;;5037633;28;20287;-73
2023/04/22 09:02:22;;;;;;;21.93;17.00;;;14.60;99.90;;;;;;5029715;28;20275;-73
2023/04/22 09:04:49;;;;;;;21.53;17.27;;;14.60;99.90;;;;;;5028935;28;20315;-73
2023/04/22 09:07:27;;;;;;;18.43;15.93;;;14.60;99.90;;;;;;5032196;28;20280;-73
2023/04/22 09:09:54;;;;;;;18.67;16.37;;;14.70;99.90;;;;;;5021043;28;20340;-73
2023/04/22 09:12:20;;;;;;;18.83;16.33;;;14.80;99.90;;;;;;5050498;28;20286;-73
2023/04/22 09:14:47;;;;;;;20.30;15.90;;;14.90;99.90;;;;;;5032874;28;20814;-73
2023/04/22 09:17:17;;;;;;;18.50;15.70;;;15.00;99.90;;;;;;5040681;28;20968;-73
2023/04/22 09:19:55;;;;;;;18.97;16.07;;;15.00;99.90;;;;;;5045206;28;20275;-73
2023/04/22 09:22:21;;;;;;;17.40;15.23;;;15.00;99.90;;;;;;5042640;28;20280;-73
2023/04/22 09:24:50;;;;;;;18.73;15.63;;;15.10;99.90;;;;;;5022530;28;20307;-73
2023/04/22 09:27:17;;;;;;;18.17;15.17;;;15.30;99.90;;;;;;5031942;28;20057;-73
2023/04/22 09:29:50;;;;;;;21.03;16.73;;;15.50;99.90;;;;;;5050350;28;20799;-73
2023/04/22 09:32:19;;;;;;;17.77;15.97;;;15.80;99.90;;;;;;5026277;28;20295;-73
2023/04/22 09:34:50;;;;;;;18.10;15.53;;;15.90;99.90;;;;;;5029855;28;20323;-73
2023/04/22 09:37:29;;;;;;;16.17;14.47;;;16.00;99.90;;;;;;5044250;28;20363;-73
2023/04/22 09:39:55;;;;;;;19.60;15.13;;;16.00;99.90;;;;;;5047243;28;20295;-73
2023/04/22 09:42:21;;;;;;;17.13;14.90;;;16.00;99.90;;;;;;5025597;28;20288;-73
2023/04/22 09:44:48;;;;;;;16.57;14.77;;;16.00;99.90;;;;;;5033037;28;20114;-73
2023/04/22 09:47:14;;;;;;;17.17;15.17;;;16.00;99.90;;;;;;5050350;28;20063;-74
2023/04/22 09:49:48;;;;;;;17.00;15.20;;;15.90;99.90;;;;;;5033389;28;20363;-74
2023/04/22 09:52:25;;;;;;;17.57;15.73;;;15.90;99.90;;;;;;5035135;28;20036;-73
2023/04/22 09:54:52;;;;;;;17.77;14.53;;;15.90;99.90;;;;;;5025258;28;20846;-73
2023/04/22 09:57:20;;;;;;;17.20;15.40;;;15.90;99.90;;;;;;5026729;28;20287;-73
2023/04/22 09:59:49;;;;;;;20.00;15.37;;;16.00;99.90;;;;;;5025838;28;20784;-73
2023/04/22 10:02:14;;;;;;;17.83;14.77;;;16.00;99.90;;;;;;5050911;28;20298;-73
2023/04/22 10:04:41;;;;;;;19.13;15.37;;;16.10;99.90;;;;;;5035187;28;20354;-73
2023/04/22 10:07:07;;;;;;;17.97;14.40;;;16.10;99.90;;;;;;5046795;28;20520;-73
2023/04/22 10:09:34;;;;;;;16.43;14.57;;;16.10;99.90;;;;;;5032812;28;20284;-73
2023/04/22 10:12:00;;;;;;;16.77;14.93;;;16.10;99.90;;;;;;5039141;28;20287;-74
2023/04/22 10:14:26;;;;;;;18.67;15.53;;;16.20;99.90;;;;;;5056210;28;20710;-74
2023/04/22 10:16:57;;;;;;;17.03;15.23;;;16.30;99.90;;;;;;5040662;28;20291;-74
2023/04/22 10:19:25;;;;;;;17.67;15.77;;;16.40;99.90;;;;;;5024647;28;20540;-74
2023/04/22 10:21:57;;;;;;;17.77;15.00;;;16.40;99.90;;;;;;5024417;28;20280;-74
2023/04/22 10:24:26;;;;;;;20.43;15.40;;;16.60;99.90;;;;;;5023340;28;20295;-74
2023/04/22 10:27:05;;;;;;;18.10;15.90;;;16.70;99.90;;;;;;5040733;28;20333;-74
2023/04/22 10:29:39;;;;;;;19.30;16.20;;;16.90;99.90;;;;;;5038445;28;20280;-74
2023/04/22 10:32:26;;;;;;;20.10;16.77;;;17.00;99.90;;;;;;5027176;28;20370;-74
2023/04/22 10:35:13;;;;;;;18.63;15.20;;;17.10;99.90;;;;;;5048918;28;20044;-74
2023/04/22 10:37:44;;;;;;;19.17;16.60;;;17.20;99.90;;;;;;5028057;28;20311;-74
2023/04/22 10:40:15;;;;;;;20.53;16.93;;;17.20;99.90;;;;;;5034092;28;20302;-74
2023/04/22 10:42:45;;;;;;;20.57;16.23;;;17.20;99.90;;;;;;5023474;28;20298;-74
2023/04/22 10:45:16;;;;;;;17.17;15.03;;;17.20;99.90;;;;;;5044231;28;20817;-74
2023/04/22 10:47:42;;;;;;;18.43;15.87;;;17.30;99.90;;;;;;5028919;28;20815;-74
2023/04/22 10:50:27;;;;;;;21.60;17.03;;;17.40;99.90;;;;;;5044228;28;20279;-76
2023/04/22 10:52:56;;;;;;;19.85;15.38;;;17.60;99.90;;;;;;5025760;28;20310;-75
2023/04/22 10:55:22;;;;;;;18.43;15.93;;;17.80;99.90;;;;;;5027762;28;20045;-74
2023/04/22 10:57:50;;;;;;;18.30;15.00;;;17.90;99.90;;;;;;5048628;28;20284;-74
2023/04/22 11:00:18;;;;;;;24.97;15.80;;;18.10;99.90;;;;;;5052207;28;20357;-74
2023/04/22 11:02:45;;;;;;;18.37;15.37;;;18.20;99.90;;;;;;5024076;28;20287;-74
2023/04/22 11:05:26;;;;;;;17.93;14.07;;;18.20;99.90;;;;;;5035884;28;20296;-74
2023/04/22 11:08:00;;;;;;;15.43;12.67;;;18.30;99.90;;;;;;5042535;28;20284;-76
2023/04/22 11:10:46;;;;;;;18.13;13.48;;;18.20;99.90;;;;;;5054150;28;20276;-75
2023/04/22 11:13:14;;;;;;;16.87;12.70;;;18.10;99.90;;;;;;5029824;28;20036;-74
2023/04/22 11:15:45;;;;;;;15.63;13.73;;;18.30;99.90;;;;;;5032774;28;20326;-75
2023/04/22 11:18:20;;;;;;;14.50;12.73;;;18.50;99.90;;;;;;5045942;28;20331;-74
2023/04/22 11:20:48;;;;;;;;;;;18.70;99.90;;;;;;5047077;28;20288;-74
2023/04/22 11:23:23;;;;;;;15.60;13.67;;;18.80;99.90;;;;;;5035932;28;19924;-75
2023/04/22 11:26:01;;;;;;;13.90;11.90;;;18.70;99.90;;;;;;5026704;28;20847;-74
2023/04/22 11:28:27;;;;;;;13.57;11.20;;;18.80;99.90;;;;;;5052937;28;20032;-74
2023/04/22 11:31:09;;;;;;;13.23;11.70;;;18.70;99.90;;;;;;5053737;28;20442;-74
2023/04/22 11:33:37;;;;;;;13.60;11.60;;;18.90;99.90;;;;;;5045771;28;20048;-75
2023/04/22 11:36:04;;;;;;;14.20;12.70;;;19.00;99.90;;;;;;5045005;28;20064;-76
2023/04/22 11:38:30;;;;;;;15.67;12.30;;;19.30;99.90;;;;;;5047352;28;20549;-76
2023/04/22 11:40:59;;;;;;;11.50;9.83;;;19.70;99.90;;;;;;5054466;28;20049;-76
2023/04/22 11:43:24;;;;;;;10.93;9.50;;;19.90;99.90;;;;;;5049106;28;20033;-76
2023/04/22 11:45:50;;;;;;;10.70;9.60;;;20.10;99.90;;;;;;5042373;28;20037;-75
2023/04/22 11:48:16;;;;;;;12.27;10.33;;;20.30;99.90;;;;;;5035583;28;20074;-75
2023/04/22 11:50:46;;;;;;;11.20;9.63;;;20.30;99.90;;;;;;5034959;28;20037;-75
2023/04/22 11:53:17;;;;;;;12.20;10.20;;;20.40;99.90;;;;;;5038688;28;20116;-76
2023/04/22 11:55:45;;;;;;;25.13;10.00;;;20.50;99.90;;;;;;5049261;28;20571;-77
2023/04/22 11:58:17;;;;;;;11.27;9.83;;;20.60;99.90;;;;;;5051351;28;20033;-75
2023/04/22 12:00:48;;;;;;;11.33;9.90;;;20.70;99.90;;;;;;5044718;28;20076;-76
2023/04/22 12:03:19;;;;;;;10.10;9.10;;;20.70;99.90;;;;;;5054110;28;20052;-76
2023/04/22 12:05:46;;;;;;;11.50;10.30;;;20.70;99.90;;;;;;5030575;28;20041;-75
2023/04/22 12:08:19;;;;;;;9.80;8.80;;;20.80;99.90;;;;;;5033218;28;20041;-76
2023/04/22 12:10:51;;;;;;;12.90;8.97;;;20.90;99.90;;;;;;5040963;28;20067;-75
2023/04/22 12:13:22;;;;;;;14.37;9.67;;;20.80;99.90;;;;;;5036192;28;20395;-76
2023/04/22 12:15:53;;;;;;;10.77;9.50;;;20.70;99.90;;;;;;5055581;28;20029;-76
2023/04/22 12:18:33;;;;;;;9.80;8.73;;;20.60;99.90;;;;;;5033739;28;20037;-75
2023/04/22 12:21:20;;;;;;;9.87;8.80;;;20.50;99.90;;;;;;5038656;28;20037;-76
2023/04/22 12:23:51;;;;;;;10.20;9.10;;;20.50;99.90;;;;;;5030347;28;20041;-77
2023/04/22 12:26:20;;;;;;;10.57;8.77;;;20.50;99.90;;;;;;5027710;28;20045;-76
2023/04/22 12:28:46;;;;;;;13.33;9.70;;;20.50;99.90;;;;;;5050552;28;20033;-76
2023/04/22 12:31:15;;;;;;;10.30;9.30;;;20.60;99.90;;;;;;5048792;28;20060;-76
2023/04/22 12:33:43;;;;;;;10.27;9.20;;;20.70;99.90;;;;;;5038741;28;20094;-76
2023/04/22 12:36:09;;;;;;;11.07;9.67;;;20.60;99.90;;;;;;5053039;28;20087;-75